createdAt,value
2022-10-07T00:02:15.201Z,11.00
2022-10-07T00:05:19.237Z,10.97
2022-10-07T00:08:23.480Z,10.96
2022-10-07T00:11:31.652Z,10.92
2022-10-07T00:14:35.574Z,10.91
2022-10-07T00:17:39.917Z,10.91
2022-10-07T00:20:43.522Z,10.84
2022-10-07T00:23:48.051Z,10.86
2022-10-07T00:26:52.225Z,10.84
2022-10-07T00:29:56.426Z,10.87
2022-10-07T00:33:00.434Z,10.79
2022-10-07T00:36:08.921Z,10.77
2022-10-07T00:39:14.768Z,10.73
2022-10-07T00:42:18.843Z,10.70
2022-10-07T00:45:22.789Z,10.65
2022-10-07T00:48:31.047Z,10.62
2022-10-07T00:51:36.361Z,10.60
2022-10-07T00:54:40.697Z,10.59
2022-10-07T00:57:47.957Z,10.64
2022-10-07T01:00:52.245Z,10.58
2022-10-07T01:03:55.951Z,10.51
2022-10-07T01:06:59.987Z,10.53
2022-10-07T01:10:05.319Z,10.50
2022-10-07T01:13:23.618Z,10.48
2022-10-07T01:16:45.452Z,10.46
2022-10-07T01:20:08.423Z,10.45
2022-10-07T01:23:42.919Z,10.41
2022-10-07T01:26:54.098Z,10.39
2022-10-07T01:30:05.079Z,10.35
2022-10-07T01:33:15.652Z,10.31
2022-10-07T01:36:23.223Z,10.27
2022-10-07T01:39:36.577Z,10.30
2022-10-07T01:42:41.323Z,10.31
2022-10-07T01:45:46.370Z,10.33
2022-10-07T01:48:51.775Z,10.32
2022-10-07T01:52:14.275Z,10.31
2022-10-07T01:55:41.405Z,10.33
2022-10-07T01:59:22.158Z,10.26
2022-10-07T02:02:46.195Z,10.20
2022-10-07T02:06:08.810Z,10.16
2022-10-07T02:09:31.793Z,10.12
2022-10-07T02:12:54.604Z,10.14
2022-10-07T02:16:33.679Z,10.13
2022-10-07T02:19:43.522Z,10.10
2022-10-07T02:22:48.876Z,10.12
2022-10-07T02:25:54.562Z,10.08
2022-10-07T02:29:01.849Z,10.02
2022-10-07T02:32:10.056Z,9.97
2022-10-07T02:35:32.884Z,10.00
2022-10-07T02:38:39.706Z,9.98
2022-10-07T02:41:55.397Z,9.94
2022-10-07T02:45:15.766Z,9.92
2022-10-07T02:48:28.573Z,9.92
2022-10-07T02:51:36.978Z,9.92
2022-10-07T02:54:45.878Z,9.89
2022-10-07T02:57:54.718Z,9.94
2022-10-07T03:01:01.346Z,9.87
2022-10-07T03:04:05.879Z,9.90
2022-10-07T03:07:12.109Z,9.82
2022-10-07T03:10:16.589Z,9.83
2022-10-07T03:13:20.752Z,9.86
2022-10-07T03:16:24.877Z,9.83
2022-10-07T03:19:28.887Z,9.78
2022-10-07T03:22:32.963Z,9.78
2022-10-07T03:25:36.810Z,9.78
2022-10-07T03:28:40.790Z,9.75
2022-10-07T03:31:45.015Z,9.72
2022-10-07T03:34:49.580Z,9.74
2022-10-07T03:37:54.203Z,9.73
2022-10-07T03:40:58.102Z,9.70
2022-10-07T03:44:02.544Z,9.67
2022-10-07T03:47:10.730Z,9.66
2022-10-07T03:50:15.340Z,9.55
2022-10-07T03:53:20.232Z,9.56
2022-10-07T03:56:24.468Z,9.50
2022-10-07T03:59:28.070Z,9.53
2022-10-07T04:02:32.586Z,9.55
2022-10-07T04:05:37.494Z,9.52
2022-10-07T04:08:43.616Z,9.47
2022-10-07T04:11:47.618Z,9.42
2022-10-07T04:14:51.749Z,9.47
2022-10-07T04:18:00.112Z,9.45
2022-10-07T04:21:03.981Z,9.45
2022-10-07T04:24:07.672Z,9.40
2022-10-07T04:27:28.277Z,9.37
2022-10-07T04:30:40.637Z,9.30
2022-10-07T04:33:45.717Z,9.33
2022-10-07T04:36:50.090Z,9.34
2022-10-07T04:40:00.726Z,9.33
2022-10-07T04:43:20.612Z,9.33
2022-10-07T04:46:24.710Z,9.29
2022-10-07T04:49:29.198Z,9.25
2022-10-07T04:52:33.182Z,9.21
2022-10-07T04:55:42.802Z,9.16
2022-10-07T04:58:46.454Z,9.17
2022-10-07T05:01:50.272Z,9.14
2022-10-07T05:04:54.241Z,9.14
2022-10-07T05:07:57.956Z,9.15
2022-10-07T05:11:02.646Z,9.15
2022-10-07T05:14:07.358Z,9.15
2022-10-07T05:17:12.937Z,9.17
2022-10-07T05:20:16.777Z,9.14
2022-10-07T05:23:28.388Z,9.16
2022-10-07T05:26:32.926Z,9.12
2022-10-07T05:29:37.057Z,9.12
2022-10-07T05:32:40.898Z,9.12
2022-10-07T05:35:47.745Z,9.11
2022-10-07T05:38:57.958Z,9.20
2022-10-07T05:42:02.254Z,9.13
2022-10-07T05:45:06.703Z,9.12
2022-10-07T05:48:11.148Z,9.14
2022-10-07T05:51:15.536Z,9.20
2022-10-07T05:54:20.271Z,9.28
2022-10-07T05:57:24.348Z,9.34
2022-10-07T06:00:28.484Z,9.37
2022-10-07T06:03:33.929Z,9.47
2022-10-07T06:06:38.685Z,9.49
2022-10-07T06:10:01.341Z,9.48
2022-10-07T06:13:08.412Z,9.34
2022-10-07T06:16:12.772Z,9.28
2022-10-07T06:19:22.665Z,9.21
2022-10-07T06:22:27.546Z,9.32
2022-10-07T06:25:34.585Z,9.27
2022-10-07T06:28:40.559Z,9.22
2022-10-07T06:31:45.976Z,9.21
2022-10-07T06:34:49.646Z,9.15
2022-10-07T06:37:53.458Z,9.21
2022-10-07T06:41:01.557Z,9.19
2022-10-07T06:44:05.813Z,9.20
2022-10-07T06:47:11.874Z,9.18
2022-10-07T06:50:16.373Z,9.31
2022-10-07T06:53:20.446Z,9.37
2022-10-07T06:56:24.900Z,9.39
2022-10-07T06:59:28.849Z,9.50
2022-10-07T07:02:33.423Z,9.64
2022-10-07T07:05:42.867Z,9.69
2022-10-07T07:08:50.340Z,9.80
2022-10-07T07:11:56.606Z,9.73
2022-10-07T07:15:01.119Z,9.80
2022-10-07T07:18:07.360Z,9.88
2022-10-07T07:21:11.349Z,9.90
2022-10-07T07:24:15.579Z,10.02
2022-10-07T07:27:22.534Z,10.08
2022-10-07T07:30:26.671Z,10.14
2022-10-07T07:33:30.600Z,10.24
2022-10-07T07:36:36.213Z,10.29
2022-10-07T07:39:40.191Z,10.42
2022-10-07T07:42:48.193Z,10.52
2022-10-07T07:45:53.753Z,10.60
2022-10-07T07:48:58.511Z,10.74
2022-10-07T07:52:03.815Z,10.91
2022-10-07T07:55:07.902Z,11.33
2022-10-07T07:58:12.257Z,11.39
2022-10-07T08:01:18.692Z,11.38
2022-10-07T08:04:24.078Z,11.49
2022-10-07T08:07:28.212Z,11.57
2022-10-07T08:10:37.242Z,11.78
2022-10-07T08:13:44.379Z,11.81
2022-10-07T08:16:49.852Z,11.76
2022-10-07T08:19:55.245Z,11.88
2022-10-07T08:22:59.923Z,12.04
2022-10-07T08:26:04.555Z,12.06
2022-10-07T08:29:08.665Z,12.10
2022-10-07T08:32:12.643Z,12.20
2022-10-07T08:35:17.200Z,12.35
2022-10-07T08:38:21.066Z,12.44
2022-10-07T08:41:42.189Z,12.51
2022-10-07T08:44:49.615Z,12.61
2022-10-07T08:47:54.591Z,12.81
2022-10-07T08:51:05.342Z,13.12
2022-10-07T08:54:13.973Z,13.41
2022-10-07T08:57:30.866Z,13.74
2022-10-07T09:01:15.396Z,13.99
2022-10-07T09:05:10.661Z,14.24
2022-10-07T09:08:22.695Z,14.35
2022-10-07T09:11:28.117Z,14.39
2022-10-07T09:14:38.082Z,14.32
2022-10-07T09:17:53.664Z,14.30
2022-10-07T09:20:58.554Z,14.27
2022-10-07T09:24:24.521Z,14.30
2022-10-07T09:27:29.637Z,14.44
2022-10-07T09:30:33.600Z,14.57
2022-10-07T09:33:43.213Z,14.84
2022-10-07T09:37:10.907Z,14.80
2022-10-07T09:40:34.085Z,14.77
2022-10-07T09:43:50.620Z,14.73
2022-10-07T09:46:59.360Z,14.76
2022-10-07T09:50:04.352Z,14.87
2022-10-07T09:53:23.996Z,14.90
2022-10-07T09:56:47.327Z,15.02
2022-10-07T09:59:51.331Z,15.08
2022-10-07T10:03:07.635Z,15.20
2022-10-07T10:06:12.324Z,15.31
2022-10-07T10:09:25.097Z,15.36
2022-10-07T10:12:35.511Z,15.53
2022-10-07T10:15:42.847Z,15.66
2022-10-07T10:18:54.979Z,15.77
2022-10-07T10:21:59.175Z,15.92
2022-10-07T10:25:21.857Z,16.14
2022-10-07T10:28:41.355Z,16.36
2022-10-07T10:32:01.300Z,16.58
2022-10-07T10:35:19.860Z,16.54
2022-10-07T10:38:23.731Z,16.61
2022-10-07T10:41:45.290Z,16.69
2022-10-07T10:45:14.007Z,16.76
2022-10-07T10:48:31.177Z,16.86
2022-10-07T10:51:49.781Z,16.94
2022-10-07T10:55:16.668Z,16.93
2022-10-07T10:58:54.189Z,17.06
2022-10-07T11:02:22.473Z,17.10
2022-10-07T11:05:32.335Z,17.13
2022-10-07T11:08:38.573Z,17.24
2022-10-07T11:11:44.327Z,17.32
2022-10-07T11:14:57.573Z,17.23
2022-10-07T11:18:08.599Z,17.33
2022-10-07T11:21:19.083Z,17.33
2022-10-07T11:24:52.581Z,17.44
2022-10-07T11:28:06.906Z,17.39
2022-10-07T11:31:32.311Z,17.43
2022-10-07T11:34:48.938Z,17.55
2022-10-07T11:38:13.539Z,17.59
2022-10-07T11:41:35.009Z,17.63
2022-10-07T11:44:53.333Z,18.13
2022-10-07T11:48:02.096Z,18.15
2022-10-07T11:51:08.382Z,18.06
2022-10-07T11:54:16.649Z,18.03
2022-10-07T11:57:24.491Z,18.25
2022-10-07T12:00:32.370Z,19.10
2022-10-07T12:03:36.538Z,19.16
2022-10-07T12:07:18.881Z,19.45
2022-10-07T12:10:27.742Z,19.42
2022-10-07T12:13:43.662Z,19.40
2022-10-07T12:16:54.227Z,19.47
2022-10-07T12:20:35.408Z,19.42
2022-10-07T12:23:41.214Z,19.54
2022-10-07T12:26:46.441Z,19.43
2022-10-07T12:30:02.863Z,19.44
2022-10-07T12:33:43.156Z,19.45
2022-10-07T12:36:47.131Z,19.52
2022-10-07T12:39:51.731Z,19.60
2022-10-07T12:43:03.739Z,19.62
2022-10-07T12:46:15.109Z,19.58
2022-10-07T12:49:52.037Z,19.56
2022-10-07T12:52:58.678Z,19.75
2022-10-07T12:56:02.799Z,19.90
2022-10-07T12:59:49.022Z,19.74
2022-10-07T13:03:08.166Z,19.79
2022-10-07T13:06:27.354Z,19.60
2022-10-07T13:09:54.520Z,19.64
2022-10-07T13:13:06.664Z,19.71
2022-10-07T13:16:20.859Z,19.78
2022-10-07T13:19:41.274Z,19.67
2022-10-07T13:22:49.372Z,19.56
2022-10-07T13:25:56.097Z,19.61
2022-10-07T13:29:01.183Z,19.86
2022-10-07T13:32:17.167Z,19.79
2022-10-07T13:35:33.175Z,19.46
2022-10-07T13:38:38.999Z,19.41
2022-10-07T13:41:45.388Z,19.28
2022-10-07T13:44:49.247Z,19.58
2022-10-07T13:47:54.083Z,19.63
2022-10-07T13:50:59.499Z,19.45
2022-10-07T13:54:18.059Z,19.43
2022-10-07T13:57:22.261Z,19.50
2022-10-07T14:00:28.232Z,19.48
2022-10-07T14:03:32.634Z,19.62
2022-10-07T14:06:56.203Z,19.62
2022-10-07T14:10:00.046Z,19.65
2022-10-07T14:13:09.069Z,19.52
2022-10-07T14:16:22.926Z,19.40
2022-10-07T14:19:32.818Z,19.22
2022-10-07T14:22:41.188Z,19.09
2022-10-07T14:25:47.929Z,19.06
2022-10-07T14:28:51.545Z,19.19
2022-10-07T14:32:29.327Z,19.08
2022-10-07T14:35:34.005Z,18.88
2022-10-07T14:38:38.506Z,18.78
2022-10-07T14:41:42.396Z,18.56
2022-10-07T14:44:46.892Z,18.39
2022-10-07T14:47:51.141Z,18.40
2022-10-07T14:50:55.110Z,18.39
2022-10-07T14:54:05.844Z,18.37
2022-10-07T14:57:10.221Z,18.36
2022-10-07T15:00:19.163Z,18.24
2022-10-07T15:03:24.262Z,18.23
2022-10-07T15:06:29.237Z,18.11
2022-10-07T15:09:33.449Z,17.98
2022-10-07T15:12:37.276Z,17.89
2022-10-07T15:15:43.370Z,17.87
2022-10-07T15:18:52.140Z,17.91
2022-10-07T15:21:56.836Z,17.88
2022-10-07T15:25:02.272Z,17.86
2022-10-07T15:28:06.382Z,17.72
2022-10-07T15:31:10.741Z,17.63
2022-10-07T15:34:14.444Z,17.58
2022-10-07T15:37:18.557Z,17.51
2022-10-07T15:40:22.637Z,17.62
2022-10-07T15:43:27.032Z,17.63
2022-10-07T15:46:31.741Z,17.59
2022-10-07T15:49:38.720Z,17.57
2022-10-07T15:52:42.281Z,17.56
2022-10-07T15:55:54.343Z,17.55
2022-10-07T15:59:00.356Z,17.53
2022-10-07T16:02:05.948Z,17.41
2022-10-07T16:05:12.430Z,17.24
2022-10-07T16:08:16.646Z,17.13
2022-10-07T16:11:21.286Z,17.07
2022-10-07T16:14:25.743Z,16.97
2022-10-07T16:17:30.118Z,16.95
2022-10-07T16:20:39.109Z,16.89
2022-10-07T16:23:45.846Z,16.81
2022-10-07T16:26:53.103Z,16.74
2022-10-07T16:30:15.463Z,16.72
2022-10-07T16:33:19.696Z,16.64
2022-10-07T16:36:25.813Z,16.56
2022-10-07T16:39:29.951Z,16.55
2022-10-07T16:42:35.820Z,16.50
2022-10-07T16:45:40.128Z,16.39
2022-10-07T16:48:44.748Z,16.33
2022-10-07T16:51:48.181Z,16.29
2022-10-07T16:54:52.026Z,16.25
2022-10-07T16:57:56.927Z,16.21
2022-10-07T17:01:02.563Z,16.14
2022-10-07T17:04:07.138Z,16.09
2022-10-07T17:07:11.653Z,16.02
2022-10-07T17:10:15.772Z,15.98
2022-10-07T17:13:19.726Z,15.91
2022-10-07T17:16:30.266Z,15.85
2022-10-07T17:19:36.524Z,15.81
2022-10-07T17:22:40.899Z,15.75
2022-10-07T17:25:47.642Z,15.75
2022-10-07T17:29:00.636Z,15.68
2022-10-07T17:32:05.150Z,15.61
2022-10-07T17:35:09.594Z,15.56
2022-10-07T17:38:14.334Z,15.53
2022-10-07T17:41:21.764Z,15.52
2022-10-07T17:44:25.661Z,15.48
2022-10-07T17:47:29.233Z,15.44
2022-10-07T17:50:34.461Z,15.53
2022-10-07T17:53:39.853Z,15.53
2022-10-07T17:56:47.489Z,15.47
2022-10-07T17:59:52.866Z,15.38
2022-10-07T18:02:56.812Z,15.41
2022-10-07T18:06:03.043Z,15.45
2022-10-07T18:09:09.082Z,15.54
2022-10-07T18:12:32.119Z,15.55
2022-10-07T18:15:37.098Z,15.53
2022-10-07T18:18:41.289Z,15.46
2022-10-07T18:21:48.124Z,15.39
2022-10-07T18:24:52.276Z,15.34
2022-10-07T18:27:56.149Z,15.27
2022-10-07T18:31:01.308Z,15.22
2022-10-07T18:34:05.505Z,15.17
2022-10-07T18:37:09.778Z,15.13
2022-10-07T18:40:13.749Z,15.11
2022-10-07T18:43:17.444Z,15.11
2022-10-07T18:46:21.796Z,15.02
2022-10-07T18:49:25.800Z,14.95
2022-10-07T18:52:29.985Z,14.89
2022-10-07T18:55:39.098Z,14.91
2022-10-07T18:58:46.085Z,14.93
2022-10-07T19:01:51.237Z,14.92
2022-10-07T19:04:56.189Z,14.84
2022-10-07T19:08:00.314Z,14.78
2022-10-07T19:11:10.153Z,14.72
2022-10-07T19:14:15.294Z,14.62
2022-10-07T19:17:19.531Z,14.58
2022-10-07T19:20:24.138Z,14.56
2022-10-07T19:23:28.759Z,14.51
2022-10-07T19:26:35.084Z,14.49
2022-10-07T19:29:39.336Z,14.46
2022-10-07T19:32:43.308Z,14.44
2022-10-07T19:35:55.129Z,14.41
2022-10-07T19:38:59.020Z,14.40
2022-10-07T19:42:04.442Z,14.36
2022-10-07T19:45:09.274Z,14.30
2022-10-07T19:48:14.615Z,14.28
2022-10-07T19:51:19.843Z,14.23
2022-10-07T19:54:23.810Z,14.22
2022-10-07T19:57:28.713Z,14.18
2022-10-07T20:00:32.785Z,14.17
2022-10-07T20:03:37.292Z,14.16
2022-10-07T20:06:42.752Z,14.12
2022-10-07T20:09:46.825Z,14.13
2022-10-07T20:12:51.282Z,14.14
2022-10-07T20:16:04.721Z,14.10
2022-10-07T20:19:14.253Z,14.03
2022-10-07T20:22:18.029Z,14.00
2022-10-07T20:25:21.920Z,14.01
2022-10-07T20:28:25.902Z,14.00
2022-10-07T20:31:35.105Z,13.98
2022-10-07T20:34:39.236Z,13.93
2022-10-07T20:37:43.163Z,13.93
2022-10-07T20:41:11.077Z,13.93
2022-10-07T20:44:17.141Z,13.93
2022-10-07T20:47:25.967Z,13.91
2022-10-07T20:50:29.764Z,13.95
2022-10-07T20:53:33.652Z,13.95
2022-10-07T20:56:37.698Z,13.93
2022-10-07T20:59:41.924Z,13.92
2022-10-07T21:02:46.320Z,13.89
2022-10-07T21:05:56.780Z,13.88
2022-10-07T21:09:01.018Z,13.88
2022-10-07T21:12:08.475Z,13.88
2022-10-07T21:15:12.584Z,13.83
2022-10-07T21:18:17.204Z,13.83
2022-10-07T21:21:22.221Z,13.83
2022-10-07T21:24:26.481Z,13.81
2022-10-07T21:27:30.219Z,13.77
2022-10-07T21:30:34.086Z,13.76
2022-10-07T21:33:39.747Z,13.73
2022-10-07T21:36:50.340Z,13.68
2022-10-07T21:39:56.098Z,13.69
2022-10-07T21:42:59.720Z,13.65
2022-10-07T21:46:03.375Z,13.61
2022-10-07T21:49:07.817Z,13.59
2022-10-07T21:52:11.863Z,13.58
2022-10-07T21:55:15.737Z,13.57
2022-10-07T21:58:21.413Z,13.53
2022-10-07T22:01:25.688Z,13.52
2022-10-07T22:04:30.745Z,13.52
2022-10-07T22:07:53.520Z,13.56
2022-10-07T22:11:05.463Z,13.55
2022-10-07T22:14:12.780Z,13.52
2022-10-07T22:17:17.252Z,13.55
2022-10-07T22:20:21.148Z,13.52
2022-10-07T22:23:25.466Z,13.52
2022-10-07T22:26:33.301Z,13.51
2022-10-07T22:29:38.374Z,13.50
2022-10-07T22:32:42.536Z,13.49
2022-10-07T22:35:47.141Z,13.47
2022-10-07T22:38:51.538Z,13.46
2022-10-07T22:41:56.616Z,13.43
2022-10-07T22:45:00.537Z,13.42
2022-10-07T22:48:04.751Z,13.43
2022-10-07T22:51:13.755Z,13.43
2022-10-07T22:54:17.620Z,13.43
2022-10-07T22:57:21.847Z,13.43
2022-10-07T23:00:25.904Z,13.41
2022-10-07T23:03:29.868Z,13.46
2022-10-07T23:06:35.561Z,13.49
2022-10-07T23:09:39.593Z,13.49
2022-10-07T23:12:43.752Z,13.48
2022-10-07T23:15:58.839Z,13.48
2022-10-07T23:19:02.385Z,13.49
2022-10-07T23:22:08.158Z,13.52
2022-10-07T23:25:13.107Z,13.47
2022-10-07T23:28:17.558Z,13.45
2022-10-07T23:31:23.427Z,13.46
2022-10-07T23:34:27.479Z,13.43
2022-10-07T23:37:31.390Z,13.43
2022-10-07T23:40:35.386Z,13.41
2022-10-07T23:43:39.487Z,13.38
2022-10-07T23:46:43.713Z,13.39
2022-10-07T23:49:47.290Z,13.39
2022-10-07T23:52:50.927Z,13.43
2022-10-07T23:55:54.926Z,13.47
2022-10-07T23:59:01.787Z,13.42
